sensor_id;sensor_type;location;lat;lon;timestamp;pressure;altitude;pressure_sealevel;temperature;humidity
63582;BME280;49727;51.078;17.066;2023-03-20T00:08:45;100133.09;;;8.80;55.26
63582;BME280;49727;51.078;17.066;2023-03-20T00:23:46;100128.75;;;8.71;55.95
63582;BME280;49727;51.078;17.066;2023-03-20T00:38:47;100121.81;;;8.87;56.67
63582;BME280;49727;51.078;17.066;2023-03-20T00:53:47;100125.41;;;9.12;57.35
63582;BME280;49727;51.078;17.066;2023-03-20T01:08:48;100120.28;;;9.19;57.40
63582;BME280;49727;51.078;17.066;2023-03-20T01:23:48;100119.59;;;9.25;58.57
63582;BME280;49727;51.078;17.066;2023-03-20T01:38:55;100125.44;;;9.28;59.40
63582;BME280;49727;51.078;17.066;2023-03-20T01:54:29;100135.03;;;9.21;60.61
63582;BME280;49727;51.078;17.066;2023-03-20T02:09:22;100129.03;;;9.11;62.58
63582;BME280;49727;51.078;17.066;2023-03-20T03:10:37;100122.66;;;8.87;67.75
63582;BME280;49727;51.078;17.066;2023-03-20T03:25:41;100117.69;;;8.92;68.61
63582;BME280;49727;51.078;17.066;2023-03-20T03:41:34;100117.41;;;9.04;69.18
63582;BME280;49727;51.078;17.066;2023-03-20T03:56:19;100111.56;;;9.00;69.49
63582;BME280;49727;51.078;17.066;2023-03-20T04:11:22;100123.00;;;8.92;70.40
63582;BME280;49727;51.078;17.066;2023-03-20T04:26:23;100128.78;;;8.79;71.28
63582;BME280;49727;51.078;17.066;2023-03-20T04:41:25;100131.94;;;8.75;71.98
63582;BME280;49727;51.078;17.066;2023-03-20T04:56:25;100144.19;;;8.76;72.49
63582;BME280;49727;51.078;17.066;2023-03-20T05:11:26;100143.72;;;8.80;72.96
63582;BME280;49727;51.078;17.066;2023-03-20T05:26:27;100142.63;;;8.91;73.83
63582;BME280;49727;51.078;17.066;2023-03-20T05:41:27;100157.78;;;9.15;74.37
63582;BME280;49727;51.078;17.066;2023-03-20T05:56:28;100166.28;;;9.27;73.81
63582;BME280;49727;51.078;17.066;2023-03-20T06:11:28;100168.03;;;9.61;74.33
63582;BME280;49727;51.078;17.066;2023-03-20T06:26:29;100175.19;;;9.77;74.28
63582;BME280;49727;51.078;17.066;2023-03-20T06:41:29;100190.13;;;10.11;74.40
63582;BME280;49727;51.078;17.066;2023-03-20T06:56:30;100195.47;;;10.20;74.05
63582;BME280;49727;51.078;17.066;2023-03-20T07:11:31;100187.81;;;10.08;74.35
63582;BME280;49727;51.078;17.066;2023-03-20T07:26:31;100195.47;;;10.11;74.43
63582;BME280;49727;51.078;17.066;2023-03-20T07:41:32;100199.47;;;10.32;74.50
63582;BME280;49727;51.078;17.066;2023-03-20T07:56:32;100215.41;;;10.73;73.75
63582;BME280;49727;51.078;17.066;2023-03-20T08:11:33;100227.19;;;10.87;73.59
63582;BME280;49727;51.078;17.066;2023-03-20T08:26:33;100221.19;;;10.85;73.12
63582;BME280;49727;51.078;17.066;2023-03-20T08:41:36;100233.69;;;10.76;71.80
63582;BME280;49727;51.078;17.066;2023-03-20T08:56:38;100245.00;;;10.78;71.70
63582;BME280;49727;51.078;17.066;2023-03-20T09:11:38;100243.19;;;10.79;71.66
63582;BME280;49727;51.078;17.066;2023-03-20T09:26:39;100247.94;;;11.00;71.02
63582;BME280;49727;51.078;17.066;2023-03-20T09:41:45;100237.38;;;11.55;70.43
63582;BME280;49727;51.078;17.066;2023-03-20T09:56:48;100233.31;;;11.90;70.56
63582;BME280;49727;51.078;17.066;2023-03-20T10:12:34;100235.88;;;12.98;68.82
63582;BME280;49727;51.078;17.066;2023-03-20T10:27:33;100226.41;;;16.00;65.08
63582;BME280;49727;51.078;17.066;2023-03-20T10:42:39;100213.28;;;18.89;60.11
63582;BME280;49727;51.078;17.066;2023-03-20T10:57:45;100194.88;;;21.32;52.43
63582;BME280;49727;51.078;17.066;2023-03-20T11:12:48;100190.22;;;24.01;44.15
63582;BME280;49727;51.078;17.066;2023-03-20T11:27:49;100182.88;;;24.87;39.45
63582;BME280;49727;51.078;17.066;2023-03-20T11:42:55;100181.44;;;22.51;40.59
63582;BME280;49727;51.078;17.066;2023-03-20T11:57:57;100168.91;;;21.19;41.22
63582;BME280;49727;51.078;17.066;2023-03-20T12:13:05;100153.13;;;26.00;35.94
63582;BME280;49727;51.078;17.066;2023-03-20T12:28:16;100142.75;;;32.96;26.49
63582;BME280;49727;51.078;17.066;2023-03-20T12:43:23;100124.28;;;41.47;17.83
63582;BME280;49727;51.078;17.066;2023-03-20T12:58:27;100112.09;;;39.94;17.96
63582;BME280;49727;51.078;17.066;2023-03-20T13:43:52;100092.03;;;29.97;24.30
63582;BME280;49727;51.078;17.066;2023-03-20T14:14:42;100084.97;;;24.07;28.30
63582;BME280;49727;51.078;17.066;2023-03-20T14:29:45;100084.94;;;20.02;35.66
63582;BME280;49727;51.078;17.066;2023-03-20T14:59:49;100115.63;;;17.93;42.50
63582;BME280;49727;51.078;17.066;2023-03-20T15:29:56;100101.56;;;15.49;45.05
63582;BME280;49727;51.078;17.066;2023-03-20T15:44:56;100122.59;;;14.77;46.98
63582;BME280;49727;51.078;17.066;2023-03-20T15:59:57;100145.22;;;14.04;49.09
63582;BME280;49727;51.078;17.066;2023-03-20T16:14:58;100155.31;;;13.23;51.08
63582;BME280;49727;51.078;17.066;2023-03-20T16:30:05;100164.25;;;12.63;53.49
63582;BME280;49727;51.078;17.066;2023-03-20T17:00:40;100171.72;;;11.92;57.19
63582;BME280;49727;51.078;17.066;2023-03-20T17:15:41;100192.28;;;11.68;58.88
63582;BME280;49727;51.078;17.066;2023-03-20T17:30:42;100176.75;;;11.48;60.20
63582;BME280;49727;51.078;17.066;2023-03-20T17:45:45;100192.00;;;11.31;60.72
63582;BME280;49727;51.078;17.066;2023-03-20T18:00:47;100209.41;;;11.11;61.80
63582;BME280;49727;51.078;17.066;2023-03-20T18:15:53;100215.97;;;11.00;63.40
63582;BME280;49727;51.078;17.066;2023-03-20T18:30:54;100212.84;;;10.88;64.44
63582;BME280;49727;51.078;17.066;2023-03-20T18:45:54;100205.19;;;10.85;65.41
63582;BME280;49727;51.078;17.066;2023-03-20T19:00:57;100207.69;;;10.78;65.47
63582;BME280;49727;51.078;17.066;2023-03-20T19:15:59;100204.56;;;10.75;66.19
63582;BME280;49727;51.078;17.066;2023-03-20T19:30:59;100203.75;;;10.66;66.37
63582;BME280;49727;51.078;17.066;2023-03-20T19:46:00;100208.59;;;10.62;67.35
63582;BME280;49727;51.078;17.066;2023-03-20T20:01:00;100217.25;;;10.56;68.11
63582;BME280;49727;51.078;17.066;2023-03-20T20:16:00;100217.09;;;10.49;68.73
63582;BME280;49727;51.078;17.066;2023-03-20T20:31:01;100229.44;;;10.42;69.23
63582;BME280;49727;51.078;17.066;2023-03-20T20:46:02;100233.56;;;10.28;69.07
63582;BME280;49727;51.078;17.066;2023-03-20T21:01:03;100219.75;;;10.08;69.95
63582;BME280;49727;51.078;17.066;2023-03-20T21:16:03;100218.25;;;9.97;70.62
63582;BME280;49727;51.078;17.066;2023-03-20T21:31:04;100210.44;;;9.88;70.85
63582;BME280;49727;51.078;17.066;2023-03-20T21:46:05;100208.59;;;9.80;71.25
63582;BME280;49727;51.078;17.066;2023-03-20T22:01:06;100201.63;;;9.71;71.37
63582;BME280;49727;51.078;17.066;2023-03-20T22:16:07;100201.09;;;9.59;72.07
63582;BME280;49727;51.078;17.066;2023-03-20T22:31:14;100202.06;;;9.49;72.03
63582;BME280;49727;51.078;17.066;2023-03-20T22:46:15;100197.66;;;9.24;72.53
63582;BME280;49727;51.078;17.066;2023-03-20T23:01:15;100193.75;;;8.93;72.95
63582;BME280;49727;51.078;17.066;2023-03-20T23:16:16;100190.03;;;8.78;73.81
63582;BME280;49727;51.078;17.066;2023-03-20T23:31:20;100183.66;;;8.62;74.82
63582;BME280;49727;51.078;17.066;2023-03-20T23:46:21;100185.56;;;8.52;75.48
